createdAt,value
2018-05-01T00:03:51.381Z,42.87
2018-05-01T00:07:53.825Z,43.05
2018-05-01T00:11:56.280Z,43.23
2018-05-01T00:15:58.710Z,43.46
2018-05-01T00:20:02.118Z,43.72
2018-05-01T00:24:04.573Z,43.76
2018-05-01T00:28:07.032Z,43.96
2018-05-01T00:32:09.480Z,44.18
2018-05-01T00:36:11.929Z,44.16
2018-05-01T00:40:14.382Z,44.50
2018-05-01T00:44:16.835Z,44.76
2018-05-01T00:48:19.283Z,45.22
2018-05-01T00:52:33.424Z,45.63
2018-05-01T00:56:35.878Z,45.92
2018-05-01T01:00:38.332Z,46.22
2018-05-01T01:04:40.779Z,46.34
2018-05-01T01:08:43.239Z,46.56
2018-05-01T01:12:45.693Z,46.62
2018-05-01T01:16:48.144Z,46.58
2018-05-01T01:20:50.569Z,46.39
2018-05-01T01:24:53.017Z,46.25
2018-05-01T01:28:55.473Z,46.17
2018-05-01T01:32:57.946Z,45.96
2018-05-01T01:36:59.843Z,45.98
2018-05-01T01:41:01.756Z,45.74
2018-05-01T01:45:03.669Z,45.63
2018-05-01T01:49:05.585Z,45.69
2018-05-01T01:53:07.480Z,45.64
2018-05-01T01:57:09.401Z,45.48
2018-05-01T02:01:11.281Z,45.36
2018-05-01T02:05:13.203Z,45.47
2018-05-01T02:09:15.124Z,45.61
2018-05-01T02:13:17.016Z,45.83
2018-05-01T02:17:18.917Z,45.70
2018-05-01T02:21:20.837Z,45.92
2018-05-01T02:25:22.731Z,45.90
2018-05-01T02:29:24.648Z,45.98
2018-05-01T02:33:26.579Z,45.73
2018-05-01T02:37:28.489Z,45.43
2018-05-01T02:41:30.421Z,45.26
2018-05-01T02:45:32.309Z,45.18
2018-05-01T02:49:34.223Z,45.12
2018-05-01T02:53:36.138Z,45.03
2018-05-01T02:57:38.049Z,45.01
2018-05-01T03:01:39.941Z,45.15
2018-05-01T03:05:41.862Z,45.09
2018-05-01T03:09:43.831Z,44.98
2018-05-01T03:13:45.718Z,45.14
2018-05-01T03:17:47.636Z,45.16
2018-05-01T03:21:49.571Z,45.03
2018-05-01T03:25:51.492Z,45.22
2018-05-01T03:29:53.426Z,45.15
2018-05-01T03:33:56.217Z,45.23
2018-05-01T03:37:58.132Z,45.22
2018-05-01T03:42:00.035Z,45.31
2018-05-01T03:46:01.952Z,45.43
2018-05-01T03:50:03.868Z,45.54
2018-05-01T03:54:05.782Z,45.65
2018-05-01T03:58:07.697Z,45.35
2018-05-01T04:02:09.643Z,45.74
2018-05-01T04:06:11.503Z,45.90
2018-05-01T04:10:13.409Z,45.96
2018-05-01T04:14:15.321Z,46.12
2018-05-01T04:18:17.254Z,46.25
2018-05-01T04:22:19.153Z,46.03
2018-05-01T04:26:21.067Z,46.43
2018-05-01T04:30:22.986Z,46.48
2018-05-01T04:34:24.877Z,46.61
2018-05-01T04:38:26.783Z,46.80
2018-05-01T04:42:28.703Z,46.90
2018-05-01T04:46:30.628Z,46.83
2018-05-01T04:50:36.153Z,46.86
2018-05-01T04:54:38.048Z,47.09
2018-05-01T04:58:39.964Z,46.98
2018-05-01T05:02:41.876Z,46.82
2018-05-01T05:06:43.800Z,46.87
2018-05-01T05:10:45.685Z,46.70
2018-05-01T05:14:47.608Z,46.67
2018-05-01T05:18:49.525Z,46.64
2018-05-01T05:22:51.450Z,46.00
2018-05-01T05:26:53.423Z,45.96
2018-05-01T06:38:48.808Z,39.56
2018-05-01T06:42:50.843Z,39.51
2018-05-01T06:46:52.923Z,40.10
2018-05-01T06:50:54.961Z,39.80
2018-05-01T06:54:57.040Z,39.41
2018-05-01T06:58:59.085Z,38.92
2018-05-01T07:03:01.080Z,38.33
2018-05-01T07:07:03.189Z,37.75
2018-05-01T07:11:05.365Z,38.41
2018-05-01T07:15:07.453Z,38.08
2018-05-01T07:19:09.538Z,38.50
2018-05-01T07:23:11.546Z,38.34
2018-05-01T07:27:13.503Z,37.81
2018-05-01T07:31:15.455Z,38.28
2018-05-01T07:35:17.422Z,38.44
2018-05-01T07:39:19.351Z,37.99
2018-05-01T07:43:21.316Z,37.50
2018-05-01T07:47:23.264Z,37.47
2018-05-01T07:51:25.219Z,38.03
2018-05-01T07:55:27.170Z,37.35
2018-05-01T07:59:29.127Z,38.03
2018-05-01T08:03:31.056Z,37.10
2018-05-01T08:07:33.008Z,37.07
2018-05-01T08:11:34.940Z,37.23
2018-05-01T08:15:36.890Z,36.99
2018-05-01T08:19:38.846Z,36.61
2018-05-01T08:23:40.803Z,37.32
2018-05-01T08:27:42.750Z,37.64
2018-05-01T08:31:44.704Z,37.37
2018-05-01T08:35:46.657Z,37.53
2018-05-01T08:39:48.602Z,37.65
2018-05-01T08:43:50.535Z,37.65
2018-05-01T08:47:52.495Z,37.16
2018-05-01T08:51:54.454Z,37.02
2018-05-01T08:55:56.418Z,36.45
2018-05-01T08:59:58.378Z,37.45
2018-05-01T09:04:00.325Z,36.87
2018-05-01T09:08:02.282Z,36.45
2018-05-01T09:12:04.227Z,36.63
2018-05-01T09:16:06.175Z,36.81
2018-05-01T09:20:08.102Z,35.93
2018-05-01T09:24:10.055Z,35.21
2018-05-01T09:28:11.986Z,35.82
2018-05-01T09:32:13.938Z,35.61
2018-05-01T09:36:15.882Z,34.87
2018-05-01T09:40:17.826Z,35.18
2018-05-01T09:44:19.781Z,35.22
2018-05-01T09:48:21.745Z,34.32
2018-05-01T09:52:24.210Z,35.02
2018-05-01T09:56:26.712Z,34.09
2018-05-01T10:00:29.209Z,33.80
2018-05-01T10:04:31.717Z,35.16
2018-05-01T10:08:34.223Z,35.27
2018-05-01T10:12:36.703Z,35.06
2018-05-01T10:16:39.195Z,33.77
2018-05-01T10:20:41.683Z,33.53
2018-05-01T10:24:44.170Z,33.89
2018-05-01T10:28:46.646Z,33.83
2018-05-01T10:32:49.151Z,34.30
2018-05-01T10:36:51.676Z,34.55
2018-05-01T10:40:54.140Z,34.23
2018-05-01T10:44:56.641Z,33.37
2018-05-01T10:48:59.120Z,32.29
2018-05-01T10:53:01.623Z,33.26
2018-05-01T10:57:04.091Z,32.02
2018-05-01T11:01:06.589Z,32.14
2018-05-01T11:05:09.083Z,32.62
2018-05-01T11:09:11.580Z,32.45
2018-05-01T11:13:14.127Z,31.68
2018-05-01T11:17:16.624Z,31.96
2018-05-01T11:21:19.112Z,32.03
2018-05-01T11:25:21.615Z,30.67
2018-05-01T11:29:24.088Z,31.13
2018-05-01T11:33:26.574Z,31.57
2018-05-01T11:37:29.112Z,32.05
2018-05-01T11:41:31.619Z,31.63
2018-05-01T11:45:34.083Z,31.29
2018-05-01T11:49:36.588Z,30.89
2018-05-01T11:53:39.117Z,30.65
2018-05-01T11:57:41.591Z,30.90
2018-05-01T12:01:44.055Z,31.09
2018-05-01T12:05:46.552Z,32.79
2018-05-01T12:09:52.918Z,31.53
2018-05-01T12:13:55.414Z,32.04
2018-05-01T12:17:57.877Z,32.02
2018-05-01T12:22:00.376Z,33.08
2018-05-01T12:26:02.862Z,31.88
2018-05-01T12:30:05.391Z,31.99
2018-05-01T12:34:07.819Z,32.38
2018-05-01T12:38:10.322Z,32.27
2018-05-01T12:42:12.837Z,32.10
2018-05-01T12:46:15.295Z,32.47
2018-05-01T12:50:18.874Z,32.73
2018-05-01T12:54:21.343Z,32.29
2018-05-01T12:58:23.840Z,32.58
2018-05-01T13:02:26.331Z,32.84
2018-05-01T13:06:28.824Z,32.60
2018-05-01T13:10:31.291Z,32.64
2018-05-01T13:14:33.782Z,33.66
2018-05-01T13:18:36.249Z,33.14
2018-05-01T13:22:38.749Z,32.63
2018-05-01T13:26:41.239Z,32.06
2018-05-01T13:30:44.661Z,32.49
2018-05-01T13:34:47.151Z,32.01
2018-05-01T13:38:49.646Z,32.27
2018-05-01T13:42:52.130Z,32.47
2018-05-01T13:46:54.606Z,32.57
2018-05-01T13:50:57.092Z,32.11
2018-05-01T13:54:59.607Z,32.48
2018-05-01T13:59:02.099Z,32.23
2018-05-01T14:03:04.560Z,32.62
2018-05-01T14:07:07.069Z,31.71
2018-05-01T14:11:09.567Z,31.58
2018-05-01T14:15:12.038Z,31.36
2018-05-01T14:19:14.552Z,31.22
2018-05-01T14:23:17.046Z,31.40
2018-05-01T14:27:19.532Z,31.15
2018-05-01T14:31:22.032Z,31.46
2018-05-01T14:35:24.504Z,30.92
2018-05-01T14:39:27.001Z,30.72
2018-05-01T14:43:29.467Z,30.55
2018-05-01T14:47:31.952Z,30.82
2018-05-01T14:51:34.447Z,30.98
2018-05-01T14:55:36.923Z,31.12
2018-05-01T14:59:39.407Z,31.16
2018-05-01T15:03:41.911Z,31.47
2018-05-01T15:07:44.397Z,31.58
2018-05-01T15:11:46.888Z,31.21
2018-05-01T15:15:49.379Z,31.01
2018-05-01T15:19:53.872Z,31.60
2018-05-01T15:23:56.363Z,32.66
2018-05-01T15:27:58.875Z,31.63
2018-05-01T15:32:01.355Z,31.86
2018-05-01T15:36:03.859Z,32.00
2018-05-01T15:40:06.344Z,33.14
2018-05-01T15:44:08.828Z,32.18
2018-05-01T15:48:11.323Z,31.83
2018-05-01T15:52:13.798Z,32.08
2018-05-01T15:56:16.298Z,32.58
2018-05-01T16:00:18.759Z,32.71
2018-05-01T16:04:21.251Z,32.32
2018-05-01T16:08:23.751Z,33.05
2018-05-01T16:12:26.215Z,33.66
2018-05-01T16:16:28.716Z,34.65
2018-05-01T16:20:31.206Z,35.44
2018-05-01T16:24:33.700Z,34.61
2018-05-01T16:28:36.188Z,35.13
2018-05-01T16:32:38.673Z,35.51
2018-05-01T16:36:41.166Z,34.90
2018-05-01T16:40:43.626Z,34.99
2018-05-01T16:44:46.115Z,34.87
2018-05-01T16:48:48.600Z,35.42
2018-05-01T16:52:51.066Z,35.47
2018-05-01T16:56:53.561Z,35.92
2018-05-01T17:00:56.036Z,35.96
2018-05-01T17:04:58.542Z,36.30
2018-05-01T17:09:01.056Z,36.75
2018-05-01T17:13:03.528Z,36.25
2018-05-01T17:17:06.031Z,36.43
2018-05-01T17:21:08.535Z,36.79
2018-05-01T17:25:11.003Z,36.84
2018-05-01T17:29:13.594Z,36.79
2018-05-01T17:33:16.002Z,37.14
2018-05-01T17:37:18.494Z,37.34
2018-05-01T17:41:20.980Z,37.29
2018-05-01T17:45:23.463Z,37.32
2018-05-01T17:49:25.951Z,37.16
2018-05-01T17:53:28.444Z,37.43
2018-05-01T17:57:30.998Z,37.98
2018-05-01T18:01:33.405Z,38.39
2018-05-01T18:05:35.902Z,38.51
2018-05-01T18:09:38.409Z,38.86
2018-05-01T18:13:40.906Z,39.28
2018-05-01T18:17:43.380Z,39.87
2018-05-01T18:21:45.884Z,40.64
2018-05-01T18:25:48.385Z,40.66
2018-05-01T18:29:50.993Z,40.63
2018-05-01T18:33:53.556Z,41.07
2018-05-01T18:37:56.076Z,41.70
2018-05-01T18:41:58.617Z,42.05
2018-05-01T18:46:01.144Z,42.85
2018-05-01T18:50:03.624Z,43.21
2018-05-01T18:54:06.096Z,42.54
2018-05-01T18:58:08.581Z,42.84
2018-05-01T19:02:11.036Z,42.56
2018-05-01T19:06:13.518Z,42.68
2018-05-01T19:10:16.004Z,42.90
2018-05-01T19:14:18.491Z,43.23
2018-05-01T19:18:20.950Z,43.06
2018-05-01T19:22:23.431Z,43.56
2018-05-01T19:26:25.900Z,43.83
2018-05-01T19:30:28.351Z,43.70
2018-05-01T19:34:30.829Z,43.31
2018-05-01T19:38:33.299Z,43.19
2018-05-01T19:42:35.785Z,42.34
2018-05-01T19:46:38.244Z,42.87
2018-05-01T19:50:40.709Z,42.74
2018-05-01T19:54:50.909Z,43.35
2018-05-01T19:58:53.362Z,44.21
2018-05-01T20:02:55.834Z,43.85
2018-05-01T20:06:58.287Z,43.77
2018-05-01T20:11:00.779Z,43.49
2018-05-01T20:15:03.334Z,43.62
2018-05-01T20:19:05.796Z,43.35
2018-05-01T20:23:08.266Z,42.96
2018-05-01T20:27:10.744Z,43.20
2018-05-01T20:31:13.281Z,43.35
2018-05-01T20:35:15.731Z,43.50
2018-05-01T20:39:18.221Z,43.71
2018-05-01T20:43:20.702Z,43.52
2018-05-01T20:47:23.170Z,43.59
2018-05-01T20:51:25.623Z,43.34
2018-05-01T20:55:28.092Z,43.21
2018-05-01T20:59:30.566Z,43.67
2018-05-01T21:03:33.055Z,43.80
2018-05-01T21:07:35.518Z,44.42
2018-05-01T21:11:38.018Z,44.62
2018-05-01T21:15:40.505Z,44.72
2018-05-01T21:19:42.989Z,44.79
2018-05-01T21:23:45.467Z,45.95
2018-05-01T21:27:47.955Z,46.07
2018-05-01T21:31:50.436Z,45.68
2018-05-01T21:35:52.924Z,45.47
2018-05-01T21:39:55.422Z,46.31
2018-05-01T21:43:57.870Z,46.22
2018-05-01T21:48:00.347Z,46.03
2018-05-01T21:52:02.830Z,45.90
2018-05-01T21:56:05.299Z,45.87
2018-05-01T22:00:07.755Z,46.35
2018-05-01T22:04:10.235Z,46.40
2018-05-01T22:08:12.730Z,46.92
2018-05-01T22:12:15.183Z,47.48
2018-05-01T22:16:17.666Z,47.37
2018-05-01T22:20:20.147Z,47.31
2018-05-01T22:24:22.592Z,47.08
2018-05-01T22:28:25.074Z,46.82
2018-05-01T22:32:27.554Z,46.63
2018-05-01T22:36:30.306Z,46.78
2018-05-01T22:40:32.787Z,46.94
2018-05-01T22:44:35.266Z,47.09
2018-05-01T22:48:37.744Z,47.23
2018-05-01T22:52:40.231Z,47.03
2018-05-01T22:56:42.680Z,46.34
2018-05-01T23:00:45.161Z,45.92
2018-05-01T23:04:47.642Z,45.35
2018-05-01T23:08:50.098Z,45.73
2018-05-01T23:12:52.572Z,46.33
2018-05-01T23:16:55.048Z,47.41
2018-05-01T23:20:57.528Z,48.84
2018-05-01T23:25:00.008Z,47.15
2018-05-01T23:29:02.541Z,48.58
2018-05-01T23:33:04.960Z,49.79
2018-05-01T23:37:07.407Z,50.78
2018-05-01T23:41:09.874Z,51.27
2018-05-01T23:45:12.351Z,51.92
2018-05-01T23:49:14.808Z,52.56
2018-05-01T23:53:17.274Z,51.88
2018-05-01T23:57:19.753Z,52.20
